Jamestown Regional Airport Jamestown US
ICAO: KJMS
IATA: JMS
Category: Medium
Scheduled Services: Yes

Elevation: 1500 ft
TransAlt. 18000 ft.

Airport Communications:
ASOS:118.425
MINNEAPOLIS CNTR:124.2
GRAND FORKS RDO:122.2
CTAF/UNICOM:123

KJMS Zoom In..

Runways:

(A) RW 04 length 5750 ft width 75 ft
---- / hdg 37

(B) RW 13 length 6502 ft width 100 ft
---- / hdg 127

(C) RW 22 length 5750 ft width 75 ft
---- / hdg 217

(D) RW 31 length 6502 ft width 100 ft
ILS 109.30 / hdg 307

Location; KJMS
Day. 10 / Time. 07.56 Zulu
* Altimeter: 30.06
* Temperature: -03° c. -26.6°f.
* Wind from: 200° Speed 04 kn.
Dewpoint: -05° c.
Visibility: 10 Statute Miles.
Clouds: Clear (automated report).

KJMS 100756Z AUTO 20004KT 10SM CLR M03/M05 A3006 RMK AO2 SLP200 T10281050


Wind From 200°
Speed 04 kn.

 
 
jpsmedia worldairports.se 2020   terms of use